• Join FlightAware (Why Join?)
  • Login
  • US Flag 
01:06AM EDT


 

Airport Tracker/Info


-or-


 

Live Flight TrackerFlight Track Log ✈ SLI524 ✈ 07-May-2013 ✈ MMMD / MID - MMMX / MEX

Flight Track Log - Related Links

Times and Time Zones

All times are in EDT time to prevent confusion due to time zone crossing. See the SLI524 flight status page for this flight to view local times or setup timezone preferences in your user account.

Time Position Orientation Groundspeed Altitude Reporting Facility
EDT Latitude Longitude Course Direction KTS MPH feet Rate Location/Type
07:22AM 20.8634 -90.2118 262° West  Level Estimated
07:23AM 20.8528 -90.2909 262° West  Level Estimated
07:24AM 20.8421 -90.3700 262° West  Level Estimated
07:25AM 20.8313 -90.4492 262° West  Level Estimated
07:26AM 20.8206 -90.5282 262° West  Level Estimated
07:27AM 20.8098 -90.6073 262° West  Level Estimated
07:28AM 20.7989 -90.6864 262° West  Level Estimated
07:29AM 20.7881 -90.7654 262° West  Level Estimated
07:30AM 20.7771 -90.8445 262° West  Level Estimated
07:31AM 20.7662 -90.9235 262° West  Level Estimated
07:32AM 20.7552 -91.0025 262° West  Level Estimated
07:33AM 20.7442 -91.0815 262° West  Level Estimated
07:34AM 20.7332 -91.1605 262° West  Level Estimated
07:35AM 20.7221 -91.2395 261° West  Level Estimated
07:36AM 20.7109 -91.3185 261° West  Level Estimated
07:37AM 20.6987 -91.4046 261° West  Level Estimated
07:38AM 20.6865 -91.4907 261° West  Level Estimated
07:39AM 20.6743 -91.5768 261° West  Level Estimated
07:40AM 20.6620 -91.6629 261° West  Level Estimated
07:41AM 20.6496 -91.7490 261° West  Level Estimated
07:42AM 20.6372 -91.8351 261° West  Level Estimated
07:43AM 20.6248 -91.9211 261° West  Level Estimated
07:44AM 20.6123 -92.0072 261° West  Level Estimated
07:45AM 20.5998 -92.0932 261° West  Level Estimated
07:46AM 20.5872 -92.1792 261° West  Level Estimated
07:47AM 20.5746 -92.2652 261° West  Level Estimated
07:48AM 20.5620 -92.3512 261° West  Level Estimated
07:49AM 20.5493 -92.4371 261° West  Level Estimated
07:50AM 20.5365 -92.5231 261° West  Level Estimated
07:51AM 20.5238 -92.6090 261° West  Level Estimated
07:52AM 20.5110 -92.6950 261° West  Level Estimated
07:53AM 20.4981 -92.7809 261° West  Level Estimated
07:54AM 20.4852 -92.8668 261° West  Level Estimated
07:55AM 20.4722 -92.9527 261° West  Level Estimated
07:56AM 20.4593 -93.0385 261° West  Level Estimated
07:57AM 20.4462 -93.1244 261° West  Level Estimated
07:58AM 20.4332 -93.2102 261° West  Level Estimated
07:59AM 20.4200 -93.2960 261° West  Level Estimated
08:00AM 20.4069 -93.3818 261° West  Level Estimated
08:01AM 20.3937 -93.4676 261° West  Level Estimated
08:02AM 20.3805 -93.5534 261° West  Level Estimated
08:03AM 20.3672 -93.6392 261° West  Level Estimated
08:04AM 20.3539 -93.7249 261° West  Level Estimated
08:05AM 20.3405 -93.8107 261° West  Level Estimated
08:06AM 20.3271 -93.8964 261° West  Level Estimated
08:07AM 20.3136 -93.9821 261° West  Level Estimated
08:08AM 20.3001 -94.0678 260° West  Level Estimated
08:09AM 20.2866 -94.1535 260° West  Level Estimated
08:10AM 20.2731 -94.2391 260° West  Level Estimated
08:11AM 20.2594 -94.3248 260° West  Level Estimated
08:12AM 20.2458 -94.4104 260° West  Level Estimated
08:13AM 20.2321 -94.4960 260° West  Level Estimated
08:14AM 20.2183 -94.5816 260° West  Level Estimated
08:15AM 20.2046 -94.6672 260° West  Level Estimated
08:16AM 20.1907 -94.7528 260° West  Level Estimated
08:17AM 20.1769 -94.8383 260° West  Level Estimated
08:18AM 20.1630 -94.9239 260° West  Level Estimated
08:19AM 20.1490 -95.0094 260° West  Level Estimated
08:20AM 20.1350 -95.0949 260° West  Level Estimated
08:21AM 20.1210 -95.1804 260° West  Level Estimated
08:22AM 20.1069 -95.2659 260° West  Level Estimated
08:23AM 20.0928 -95.3513 260° West  Level Estimated
08:24AM 20.0787 -95.4368 260° West  Level Estimated
08:25AM 20.0645 -95.5222 260° West  Level Estimated
08:26AM 20.0503 -95.6076 260° West  Level Estimated
08:27AM 20.0360 -95.6930 260° West  Level Estimated
08:28AM 20.0217 -95.7784 260° West  Level Estimated
08:29AM 20.0073 -95.8638 260° West  Level Estimated
08:30AM 19.9929 -95.9491 260° West  Level Estimated
08:31AM 19.9785 -96.0345 260° West  Level Estimated
08:32AM 19.9640 -96.1198 260° West  Level Estimated
08:33AM 19.9495 -96.2051 260° West  Level Estimated
08:34AM 19.9349 -96.2904 260° West  Level Estimated
08:35AM 19.9203 -96.3757 260° West  Level Estimated
08:36AM 19.9057 -96.4609 260° West  Level Estimated
08:37AM 19.8910 -96.5462 260° West  Level Estimated
08:38AM 19.8763 -96.6314 260° West  Level Estimated
08:39AM 19.8615 -96.7166 260° West  Level Estimated
08:40AM 19.8467 -96.8018 260° West  Level Estimated
08:41AM 19.8319 -96.8870 260° West  Level Estimated
08:42AM 19.8170 -96.9722 259° West  Level Estimated
08:43AM 19.8020 -97.0573 259° West  Level Estimated
08:44AM 19.7871 -97.1424 259° West  Level Estimated
08:45AM 19.7721 -97.2276 259° West  Level Estimated
08:46AM 19.7570 -97.3127 259° West  Level Estimated
08:47AM 19.7419 -97.3977 259° West  Level Estimated
08:48AM 19.7268 -97.4828 259° West  Level Estimated
08:49AM 19.7116 -97.5679 259° West  Level Estimated
08:50AM 19.6964 -97.6529 259° West  Level Estimated
08:51AM 19.6812 -97.7379 259° West  Level Estimated
08:52AM 19.6659 -97.8229 259° West  Level Estimated
08:53AM 19.6505 -97.9079 259° West  Level Estimated
08:54AM 19.6352 -97.9929 259° West  Level Estimated
08:55AM 19.6198 -98.0778 259° West  Level Estimated
08:56AM 19.6043 -98.1628 259° West  Level Estimated
08:57AM 19.5888 -98.2477 259° West  Level Estimated
08:58AM 19.5733 -98.3326 259° West  Level Estimated
08:59AM 19.5578 -98.4175 259° West  Level Estimated
09:00AM 19.5422 -98.5024 259° West  Level Estimated
09:01AM 19.5265 -98.5872 259° West  Level Estimated
09:02AM 19.5108 -98.6721 259° West  Level Estimated
09:03AM 19.4951 -98.7569 259° West  Level Estimated
09:04AM 19.4793 -98.8417 259° West  Level Estimated
09:05AM 19.4635 -98.9265 259° West  Level Estimated